Time;durP1;ratioP1;P1;durP2;ratioP2;P2;SDS_P1;SDS_P2;PMS_P1;PMS_P2;Temp;Humidity;BMP_temperature;BMP_pressure;BME280_temperature;BME280_humidity;BME280_pressure;Samples;Min_cycle;Max_cycle;Signal;HPM_P1;HPM_P2
2023/08/04 04:00:35;;;;;;;2.27;2.07;;;15.80;99.90;;;;;;5825025;23;20570;-71
2023/08/04 04:03:02;;;;;;;3.10;2.90;;;15.80;99.90;;;;;;4894510;29;20486;-71
2023/08/04 04:05:29;;;;;;;2.20;2.10;;;15.80;99.90;;;;;;4896933;29;20483;-70
2023/08/04 04:07:55;;;;;;;2.20;2.00;;;15.80;99.90;;;;;;4906567;29;20478;-70
2023/08/04 04:10:22;;;;;;;3.80;3.60;;;15.80;99.90;;;;;;4911933;29;20498;-70
2023/08/04 04:12:49;;;;;;;4.83;2.40;;;15.80;99.90;;;;;;4884303;29;20480;-72
2023/08/04 04:15:15;;;;;;;2.43;1.43;;;15.80;99.90;;;;;;4891702;29;20610;-72
2023/08/04 04:17:43;;;;;;;2.50;2.20;;;15.80;99.90;;;;;;4910428;23;20502;-70
2023/08/04 04:20:10;;;;;;;2.03;1.93;;;15.80;99.90;;;;;;4931068;29;20476;-70
2023/08/04 04:22:37;;;;;;;8.93;2.00;;;15.80;99.90;;;;;;4928408;29;20478;-70
2023/08/04 04:25:04;;;;;;;5.40;1.80;;;15.80;99.90;;;;;;4933561;29;20473;-70
2023/08/04 04:27:31;;;;;;;5.20;2.70;;;15.90;99.90;;;;;;4922267;29;20498;-70
2023/08/04 04:29:58;;;;;;;1.93;1.87;;;15.90;99.90;;;;;;4925635;29;20475;-70
2023/08/04 04:32:24;;;;;;;2.10;2.00;;;15.90;99.90;;;;;;4931528;29;21015;-70
2023/08/04 04:34:52;;;;;;;4.90;3.00;;;15.90;99.90;;;;;;4931038;29;20521;-70
2023/08/04 04:37:19;;;;;;;1.00;1.00;;;15.90;99.90;;;;;;4929570;29;20470;-70
2023/08/04 04:39:47;;;;;;;4.27;1.70;;;15.90;99.90;;;;;;4926636;29;20577;-70
2023/08/04 04:42:13;;;;;;;1.73;1.63;;;15.90;99.90;;;;;;4929594;29;20548;-70
2023/08/04 04:44:40;;;;;;;2.00;1.90;;;15.90;99.90;;;;;;4921522;29;20977;-70
2023/08/04 04:47:07;;;;;;;3.13;2.93;;;16.00;99.90;;;;;;4925534;29;20541;-70
2023/08/04 04:49:33;;;;;;;2.23;2.23;;;16.00;99.90;;;;;;4923955;29;20474;-70
2023/08/04 04:52:01;;;;;;;6.80;1.93;;;16.00;99.90;;;;;;4930472;29;20564;-69
2023/08/04 04:54:28;;;;;;;2.87;1.60;;;16.10;99.90;;;;;;4922238;29;20525;-69
2023/08/04 04:56:54;;;;;;;2.13;2.13;;;16.10;99.90;;;;;;4927450;29;20474;-69
2023/08/04 04:59:21;;;;;;;4.63;1.93;;;16.10;99.90;;;;;;4921716;29;20552;-69
2023/08/04 05:01:48;;;;;;;1.60;1.50;;;16.10;99.90;;;;;;4924558;29;20866;-69
2023/08/04 05:04:14;;;;;;;2.57;2.43;;;16.20;99.90;;;;;;4927402;29;20492;-70
2023/08/04 05:06:41;;;;;;;1.30;1.20;;;16.20;99.90;;;;;;4929142;29;20473;-69
2023/08/04 05:09:10;;;;;;;2.20;2.00;;;16.30;99.90;;;;;;4927304;29;20502;-70
2023/08/04 05:11:36;;;;;;;1.67;1.67;;;16.30;99.90;;;;;;4929224;29;20470;-69
2023/08/04 05:14:03;;;;;;;1.77;1.73;;;16.30;99.90;;;;;;4930820;29;20457;-69
2023/08/04 05:16:30;;;;;;;1.20;1.20;;;16.40;99.90;;;;;;4922499;29;20964;-69
2023/08/04 05:18:56;;;;;;;2.30;2.10;;;16.40;99.90;;;;;;4932672;29;20493;-69
2023/08/04 05:21:23;;;;;;;2.13;1.90;;;16.40;99.90;;;;;;4930628;29;20598;-69
2023/08/04 05:23:49;;;;;;;1.80;1.57;;;16.50;99.90;;;;;;4921784;29;20474;-69
2023/08/04 05:26:17;;;;;;;2.07;1.80;;;16.50;99.90;;;;;;4933462;29;20474;-70
2023/08/04 05:28:44;;;;;;;2.27;2.07;;;16.50;99.90;;;;;;4928879;29;20499;-70
2023/08/04 05:31:11;;;;;;;1.53;1.53;;;16.60;99.90;;;;;;4932392;29;20537;-70
2023/08/04 05:33:38;;;;;;;1.20;1.20;;;16.60;99.90;;;;;;4929002;29;20473;-69
2023/08/04 05:36:05;;;;;;;2.80;2.10;;;16.60;99.90;;;;;;4934376;29;20822;-69
2023/08/04 05:38:32;;;;;;;2.03;1.73;;;16.60;99.90;;;;;;4931736;29;20493;-69
2023/08/04 05:41:01;;;;;;;1.00;0.90;;;16.60;99.90;;;;;;4928018;29;21026;-69
2023/08/04 05:43:29;;;;;;;1.27;1.27;;;16.70;99.90;;;;;;4922112;29;20473;-69
2023/08/04 05:46:00;;;;;;;1.90;1.80;;;16.70;99.90;;;;;;4934996;29;20462;-70
2023/08/04 05:48:27;;;;;;;1.47;1.47;;;16.80;99.90;;;;;;4932173;29;20525;-69
2023/08/04 05:50:55;;;;;;;1.67;1.67;;;16.90;99.90;;;;;;4933505;29;20465;-68
2023/08/04 05:53:21;;;;;;;1.80;1.70;;;17.10;99.90;;;;;;4928775;29;20553;-69
2023/08/04 05:55:48;;;;;;;1.43;1.43;;;17.30;99.90;;;;;;4931304;29;20570;-69
2023/08/04 05:58:14;;;;;;;1.40;1.40;;;17.40;99.90;;;;;;4928064;29;20524;-69
2023/08/04 06:00:42;;;;;;;1.80;1.30;;;17.40;99.90;;;;;;4930911;29;20842;-68
2023/08/04 06:03:09;;;;;;;6.03;1.20;;;17.40;99.90;;;;;;4929262;29;20466;-69
2023/08/04 06:05:37;;;;;;;1.60;0.93;;;17.50;99.90;;;;;;4931033;29;20462;-69
2023/08/04 06:08:04;;;;;;;1.70;1.60;;;17.50;99.90;;;;;;4929953;29;20489;-69
2023/08/04 06:10:31;;;;;;;1.10;1.00;;;17.50;99.90;;;;;;4925330;29;20517;-69
2023/08/04 06:12:57;;;;;;;1.43;1.03;;;17.60;99.90;;;;;;4934008;29;20572;-69
2023/08/04 06:15:24;;;;;;;4.40;1.90;;;17.90;99.90;;;;;;4924698;29;20466;-71
2023/08/04 06:17:52;;;;;;;1.10;1.10;;;18.60;99.90;;;;;;4929622;29;20613;-69
2023/08/04 06:20:19;;;;;;;1.30;1.30;;;19.40;99.90;;;;;;4935487;29;20478;-70
2023/08/04 06:22:47;;;;;;;3.20;1.43;;;20.20;99.90;;;;;;4930167;29;20492;-70
2023/08/04 06:25:14;;;;;;;1.37;1.00;;;20.80;99.90;;;;;;4928496;29;20469;-70
2023/08/04 06:27:41;;;;;;;2.20;1.10;;;21.30;99.90;;;;;;4927386;29;20575;-70
2023/08/04 06:30:09;;;;;;;0.97;0.97;;;22.00;99.90;;;;;;4932620;29;20494;-70
2023/08/04 06:32:36;;;;;;;0.80;0.80;;;22.70;99.90;;;;;;4930800;29;20469;-70
2023/08/04 06:35:04;;;;;;;0.90;0.90;;;23.30;99.90;;;;;;4925571;29;20480;-70
2023/08/04 06:37:31;;;;;;;0.80;0.80;;;23.90;99.90;;;;;;4925927;29;20501;-70
2023/08/04 06:39:57;;;;;;;1.30;1.30;;;24.20;99.90;;;;;;4916501;29;20478;-70
2023/08/04 06:42:24;;;;;;;1.10;1.10;;;24.50;99.90;;;;;;4926221;29;20489;-70
2023/08/04 06:44:50;;;;;;;0.90;0.90;;;24.10;99.90;;;;;;4927894;29;20510;-69
2023/08/04 06:47:17;;;;;;;0.83;0.83;;;23.50;99.90;;;;;;4928110;29;20516;-70
2023/08/04 06:49:44;;;;;;;0.80;0.80;;;22.60;99.90;;;;;;4926890;29;20481;-70
2023/08/04 06:52:12;;;;;;;1.60;1.00;;;22.00;99.90;;;;;;4931030;29;20579;-69
2023/08/04 06:54:39;;;;;;;2.23;1.00;;;21.50;99.90;;;;;;4928168;29;20962;-70
2023/08/04 06:57:06;;;;;;;1.70;1.47;;;21.10;99.90;;;;;;4926805;29;20532;-69
2023/08/04 06:59:33;;;;;;;1.50;1.40;;;20.70;99.90;;;;;;4922982;29;20551;-69
2023/08/04 07:02:00;;;;;;;1.20;1.20;;;20.40;99.90;;;;;;4922837;29;20519;-69
2023/08/04 07:04:27;;;;;;;1.40;1.40;;;20.10;99.90;;;;;;4925433;29;20502;-70
2023/08/04 07:06:57;;;;;;;1.20;1.03;;;19.90;99.90;;;;;;4923306;29;20470;-70
2023/08/04 07:09:25;;;;;;;1.43;1.40;;;19.80;99.90;;;;;;4933706;29;20588;-70
2023/08/04 07:11:52;;;;;;;1.70;1.13;;;19.60;99.90;;;;;;4925555;29;20468;-70
2023/08/04 07:14:19;;;;;;;1.17;1.17;;;19.50;99.90;;;;;;4927027;29;20548;-70
2023/08/04 07:16:46;;;;;;;1.00;1.00;;;19.60;99.90;;;;;;4928530;29;20469;-70
2023/08/04 07:19:12;;;;;;;2.97;1.37;;;19.60;99.90;;;;;;4921265;29;20885;-70
2023/08/04 07:21:39;;;;;;;1.13;1.13;;;19.60;99.90;;;;;;4928458;29;20504;-70
2023/08/04 07:24:06;;;;;;;1.67;1.67;;;19.50;99.90;;;;;;4931605;29;20460;-70
2023/08/04 07:26:34;;;;;;;1.33;1.33;;;19.50;99.90;;;;;;4924280;29;20605;-69
2023/08/04 07:29:02;;;;;;;1.50;1.50;;;19.40;99.90;;;;;;4933224;29;20543;-70
2023/08/04 07:31:28;;;;;;;1.40;1.40;;;19.30;99.90;;;;;;4932053;29;20504;-70
2023/08/04 07:33:56;;;;;;;1.60;1.50;;;19.40;99.90;;;;;;4926908;29;20479;-70
2023/08/04 07:36:23;;;;;;;1.80;1.63;;;19.30;99.90;;;;;;4924342;29;20584;-70
2023/08/04 07:38:49;;;;;;;7.80;3.13;;;19.30;99.90;;;;;;4932119;29;20493;-71
2023/08/04 07:41:19;;;;;;;5.73;1.80;;;19.40;99.90;;;;;;4919511;29;20481;-70
2023/08/04 07:43:47;;;;;;;1.20;1.20;;;19.40;99.90;;;;;;4926286;29;20469;-71
2023/08/04 07:46:20;;;;;;;1.37;1.37;;;19.60;99.90;;;;;;4931394;29;20469;-70
2023/08/04 07:48:47;;;;;;;1.67;1.57;;;19.80;99.90;;;;;;4929108;29;20585;-70
2023/08/04 07:51:14;;;;;;;2.20;2.00;;;19.70;99.90;;;;;;4931145;29;20586;-70
2023/08/04 07:53:40;;;;;;;4.93;1.70;;;19.70;99.90;;;;;;4932841;29;20496;-70
2023/08/04 07:56:07;;;;;;;1.87;1.80;;;19.80;99.90;;;;;;4923795;29;20478;-69
2023/08/04 07:58:34;;;;;;;4.73;1.97;;;20.00;99.90;;;;;;4925530;29;20554;-70
2023/08/04 08:01:03;;;;;;;2.50;1.30;;;20.10;99.90;;;;;;4932206;29;20563;-69
2023/08/04 08:03:30;;;;;;;1.43;1.33;;;20.30;99.90;;;;;;4924857;29;20583;-70
2023/08/04 08:05:57;;;;;;;3.50;2.37;;;20.40;99.90;;;;;;4917490;29;20581;-70
2023/08/04 08:08:23;;;;;;;1.73;1.63;;;20.40;99.90;;;;;;4924501;29;21009;-69
2023/08/04 08:10:50;;;;;;;1.27;1.27;;;20.50;99.90;;;;;;4931835;29;20550;-69
2023/08/04 08:13:16;;;;;;;1.83;1.60;;;20.50;99.90;;;;;;4927421;29;20479;-70
2023/08/04 08:15:43;;;;;;;1.03;1.03;;;20.50;99.90;;;;;;4926625;29;20530;-70
2023/08/04 08:18:11;;;;;;;1.03;1.03;;;20.50;99.90;;;;;;4928363;29;20498;-70
2023/08/04 08:20:40;;;;;;;1.57;1.47;;;20.60;99.90;;;;;;4932542;29;20456;-70
2023/08/04 08:23:06;;;;;;;0.97;0.97;;;20.60;99.90;;;;;;4932493;29;20536;-70
2023/08/04 08:25:34;;;;;;;2.13;1.23;;;20.70;99.90;;;;;;4934473;29;20486;-69
2023/08/04 08:28:00;;;;;;;5.20;1.50;;;20.80;99.90;;;;;;4931724;29;20567;-69
2023/08/04 08:30:27;;;;;;;1.17;1.17;;;21.00;99.90;;;;;;4922531;29;20485;-68
2023/08/04 08:32:54;;;;;;;1.40;1.40;;;21.00;99.90;;;;;;4920259;29;20472;-69
2023/08/04 08:35:22;;;;;;;1.33;1.33;;;20.90;99.90;;;;;;4931994;29;20502;-69
2023/08/04 08:37:48;;;;;;;8.13;1.43;;;20.90;99.90;;;;;;4930044;29;20601;-69
2023/08/04 08:40:15;;;;;;;2.37;1.40;;;20.90;99.90;;;;;;4932598;29;20495;-69
2023/08/04 08:42:42;;;;;;;1.00;1.00;;;20.80;99.90;;;;;;4921035;29;20496;-69
2023/08/04 08:45:09;;;;;;;1.37;1.30;;;20.80;99.90;;;;;;4929855;29;20478;-69
2023/08/04 08:47:37;;;;;;;2.03;1.43;;;20.80;99.90;;;;;;4930800;29;20487;-69
2023/08/04 08:50:06;;;;;;;1.40;1.40;;;20.80;99.90;;;;;;4931091;29;20950;-69
2023/08/04 08:52:39;;;;;;;1.00;1.00;;;20.80;99.90;;;;;;4931420;29;20562;-69
2023/08/04 08:55:07;;;;;;;1.07;1.07;;;20.90;99.90;;;;;;4932201;29;20468;-69
2023/08/04 08:57:33;;;;;;;1.40;1.40;;;21.10;99.90;;;;;;4923853;29;20491;-68
2023/08/04 09:00:01;;;;;;;1.90;1.80;;;21.10;99.90;;;;;;4930684;29;20492;-69
2023/08/04 09:02:28;;;;;;;1.13;1.13;;;21.10;99.90;;;;;;4931545;29;20559;-69
2023/08/04 09:04:54;;;;;;;1.87;1.77;;;21.20;99.90;;;;;;4922324;29;20970;-69
2023/08/04 09:07:23;;;;;;;1.03;1.03;;;21.30;99.90;;;;;;4916937;29;20827;-71
2023/08/04 09:09:51;;;;;;;2.07;1.23;;;21.40;99.90;;;;;;4926385;29;20520;-69
2023/08/04 09:12:18;;;;;;;1.20;1.20;;;21.40;99.90;;;;;;4922920;29;20469;-69
2023/08/04 09:14:49;;;;;;;0.93;0.93;;;21.50;99.90;;;;;;4922444;29;20469;-70
2023/08/04 09:17:30;;;;;;;0.80;0.80;;;21.80;99.90;;;;;;4923316;29;20473;-70
2023/08/04 09:19:58;;;;;;;1.23;1.17;;;21.80;99.90;;;;;;4924529;29;20587;-69
2023/08/04 09:22:25;;;;;;;0.93;0.90;;;21.80;99.90;;;;;;4925460;29;20559;-71
2023/08/04 09:24:59;;;;;;;1.20;1.20;;;21.80;99.90;;;;;;4922626;29;20496;-71
2023/08/04 09:27:31;;;;;;;0.83;0.73;;;21.80;99.90;;;;;;4923607;29;20467;-71
2023/08/04 09:29:59;;;;;;;1.10;1.10;;;21.80;99.90;;;;;;4924664;29;20478;-71
2023/08/04 09:32:26;;;;;;;0.90;0.90;;;22.10;99.90;;;;;;4921253;29;20557;-71
2023/08/04 09:35:04;;;;;;;0.90;0.90;;;22.10;99.90;;;;;;4929441;29;20466;-71
2023/08/04 09:37:32;;;;;;;2.77;1.13;;;21.90;99.90;;;;;;4919948;29;20866;-70
2023/08/04 09:40:03;;;;;;;1.20;1.20;;;21.60;99.90;;;;;;4922811;29;20477;-71
2023/08/04 09:42:29;;;;;;;1.23;1.23;;;21.60;99.90;;;;;;4921869;29;21002;-72
2023/08/04 09:44:56;;;;;;;1.27;1.27;;;21.40;99.90;;;;;;4924017;29;20554;-71
2023/08/04 09:47:25;;;;;;;2.47;1.40;;;21.20;99.90;;;;;;4929336;29;20958;-71
2023/08/04 09:49:52;;;;;;;1.10;1.10;;;20.80;99.90;;;;;;4928931;29;20475;-72
2023/08/04 09:52:23;;;;;;;1.30;1.30;;;20.60;99.90;;;;;;4922791;29;20528;-70
2023/08/04 09:54:51;;;;;;;0.90;0.90;;;20.50;99.90;;;;;;4927895;29;20526;-70
2023/08/04 09:57:19;;;;;;;1.63;1.63;;;20.40;99.90;;;;;;4930485;29;20482;-70
2023/08/04 09:59:47;;;;;;;1.07;1.07;;;20.50;99.90;;;;;;4929658;29;20473;-68
2023/08/04 10:02:14;;;;;;;1.30;1.30;;;20.50;99.90;;;;;;4925837;29;20533;-68
2023/08/04 10:04:41;;;;;;;1.37;1.27;;;20.70;99.90;;;;;;4921383;29;21210;-70
2023/08/04 10:07:10;;;;;;;1.60;1.50;;;20.80;99.90;;;;;;4926857;29;20459;-70
2023/08/04 10:09:37;;;;;;;1.70;1.20;;;21.00;99.90;;;;;;4933389;29;20471;-70
2023/08/04 10:12:05;;;;;;;2.00;1.90;;;21.10;99.90;;;;;;4934958;29;20461;-70
2023/08/04 10:14:33;;;;;;;1.77;1.77;;;21.30;99.90;;;;;;4933335;29;20462;-70
2023/08/04 10:17:00;;;;;;;1.90;1.90;;;21.40;99.90;;;;;;4930934;29;20924;-70
2023/08/04 10:19:29;;;;;;;1.00;1.00;;;21.40;99.90;;;;;;4941504;23;20560;-71
2023/08/04 10:22:05;;;;;;;1.47;1.47;;;21.40;99.90;;;;;;4926847;29;20482;-72
2023/08/04 10:24:35;;;;;;;1.47;1.47;;;21.40;99.90;;;;;;4913771;29;21183;-72
2023/08/04 10:27:12;;;;;;;2.67;1.40;;;21.40;99.90;;;;;;4910214;29;21019;-69
2023/08/04 10:29:41;;;;;;;1.33;1.33;;;21.00;99.90;;;;;;4904615;29;21088;-71
2023/08/04 10:32:09;;;;;;;0.77;0.77;;;20.60;99.90;;;;;;4905288;29;20518;-70
2023/08/04 10:34:37;;;;;;;1.33;1.33;;;20.30;99.90;;;;;;4892098;29;20479;-71
2023/08/04 10:37:09;;;;;;;0.83;0.83;;;20.30;99.90;;;;;;4891275;29;20478;-70
2023/08/04 10:39:36;;;;;;;1.27;1.27;;;20.20;99.90;;;;;;4897095;29;20508;-71
2023/08/04 10:42:06;;;;;;;0.97;0.97;;;20.10;99.90;;;;;;4892866;29;20500;-71
2023/08/04 10:44:51;;;;;;;0.70;0.67;;;20.00;99.90;;;;;;4896542;29;20504;-70
2023/08/04 10:47:40;;;;;;;0.70;0.70;;;20.00;99.90;;;;;;4889579;29;20474;-71
2023/08/04 10:50:08;;;;;;;0.70;0.70;;;20.10;99.90;;;;;;4878201;29;20490;-69
2023/08/04 10:52:36;;;;;;;2.50;1.20;;;20.20;99.90;;;;;;4877566;29;20481;-71
2023/08/04 10:55:06;;;;;;;0.80;0.80;;;20.30;99.90;;;;;;4878968;29;20841;-70
2023/08/04 10:57:34;;;;;;;3.60;0.60;;;20.40;99.90;;;;;;4884668;29;20508;-70
2023/08/04 11:00:05;;;;;;;0.60;0.60;;;20.40;99.90;;;;;;4891290;29;20980;-70
2023/08/04 11:02:32;;;;;;;0.97;0.60;;;20.50;99.90;;;;;;4893770;29;20839;-70
2023/08/04 11:05:00;;;;;;;0.60;0.60;;;20.70;99.90;;;;;;4899750;29;20470;-71
2023/08/04 11:07:27;;;;;;;0.70;0.70;;;20.80;99.90;;;;;;4892848;29;20482;-71
2023/08/04 11:09:54;;;;;;;0.50;0.50;;;20.90;99.90;;;;;;4899691;29;20905;-70
2023/08/04 11:12:22;;;;;;;2.13;0.57;;;21.00;99.90;;;;;;4904234;29;20464;-71
2023/08/04 11:14:49;;;;;;;0.40;0.40;;;21.10;99.90;;;;;;4895815;29;20471;-70
2023/08/04 11:17:19;;;;;;;0.30;0.30;;;21.10;99.90;;;;;;4897533;29;20477;-69
2023/08/04 11:19:47;;;;;;;0.50;0.50;;;21.20;99.90;;;;;;4891757;29;20499;-70
2023/08/04 11:22:15;;;;;;;0.77;0.77;;;21.30;99.90;;;;;;4895588;29;20480;-70
2023/08/04 11:24:42;;;;;;;1.17;0.90;;;21.40;99.90;;;;;;4885738;29;20491;-71
2023/08/04 11:27:10;;;;;;;0.47;0.47;;;21.50;99.90;;;;;;4888244;29;20483;-71
2023/08/04 11:29:37;;;;;;;1.50;0.80;;;21.80;99.90;;;;;;4890447;29;20993;-72
2023/08/04 11:32:09;;;;;;;0.77;0.57;;;21.90;99.90;;;;;;4895033;29;20819;-70
2023/08/04 11:34:39;;;;;;;0.50;0.50;;;22.10;99.90;;;;;;4908796;29;20516;-72
2023/08/04 11:37:06;;;;;;;0.60;0.60;;;22.20;99.90;;;;;;4895126;29;21175;-72
2023/08/04 11:39:34;;;;;;;2.13;0.80;;;22.20;99.90;;;;;;4890683;29;20502;-70
2023/08/04 11:42:01;;;;;;;1.20;0.50;;;22.20;99.90;;;;;;4901077;29;20582;-70
2023/08/04 11:44:28;;;;;;;1.00;0.80;;;22.30;99.90;;;;;;4895222;29;20483;-72
2023/08/04 11:46:54;;;;;;;0.50;0.50;;;22.40;99.90;;;;;;4900183;29;20464;-70
2023/08/04 11:49:21;;;;;;;0.60;0.60;;;22.40;99.90;;;;;;4891331;29;20496;-70
2023/08/04 11:51:50;;;;;;;0.30;0.30;;;22.40;99.90;;;;;;4914402;29;20470;-72
2023/08/04 11:54:19;;;;;;;0.60;0.60;;;22.50;99.90;;;;;;4912727;29;20474;-72
2023/08/04 11:56:45;;;;;;;0.40;0.40;;;22.50;99.90;;;;;;4890501;29;20802;-71
2023/08/04 11:59:13;;;;;;;0.50;0.50;;;22.50;99.90;;;;;;4893756;29;20490;-71
2023/08/04 12:01:40;;;;;;;0.40;0.40;;;22.50;99.90;;;;;;4894599;29;20475;-71
2023/08/04 12:04:21;;;;;;;0.50;0.50;;;22.50;99.90;;;;;;4911397;29;20516;-69
2023/08/04 12:06:49;;;;;;;0.60;0.50;;;22.10;99.90;;;;;;4892439;29;20977;-72
2023/08/04 12:09:18;;;;;;;0.40;0.40;;;21.60;99.90;;;;;;4894227;29;20991;-72
2023/08/04 12:11:49;;;;;;;0.60;0.60;;;21.10;99.90;;;;;;4884403;29;20471;-71
2023/08/04 12:14:16;;;;;;;0.37;0.37;;;20.70;99.90;;;;;;4883910;29;20490;-71
2023/08/04 12:16:53;;;;;;;0.43;0.40;;;20.20;99.90;;;;;;4888922;29;20486;-69
2023/08/04 12:19:21;;;;;;;0.30;0.30;;;19.70;99.90;;;;;;4895419;29;20814;-71
2023/08/04 12:21:51;;;;;;;0.77;0.57;;;19.40;99.90;;;;;;4890122;29;20467;-71
2023/08/04 12:24:18;;;;;;;0.30;0.30;;;19.20;99.90;;;;;;4900967;29;21430;-71
2023/08/04 12:26:45;;;;;;;0.43;0.43;;;18.90;99.90;;;;;;4890867;29;20542;-71
2023/08/04 12:29:12;;;;;;;1.80;0.47;;;18.80;99.90;;;;;;4894865;29;20491;-69
2023/08/04 12:31:39;;;;;;;0.20;0.20;;;18.70;99.90;;;;;;4897801;29;20483;-72
2023/08/04 12:34:07;;;;;;;1.50;0.30;;;18.70;99.90;;;;;;4891586;29;20467;-73
2023/08/04 12:36:34;;;;;;;0.40;0.40;;;18.60;99.90;;;;;;4888780;29;20995;-75
2023/08/04 12:39:03;;;;;;;0.30;0.30;;;18.60;99.90;;;;;;4899952;29;20490;-72
2023/08/04 12:41:30;;;;;;;0.23;0.23;;;18.70;99.90;;;;;;4901388;29;20486;-71
2023/08/04 12:43:57;;;;;;;1.27;0.47;;;18.80;99.90;;;;;;4894859;29;20576;-72
2023/08/04 12:46:24;;;;;;;0.40;0.37;;;18.90;99.90;;;;;;4887776;29;20476;-70
2023/08/04 12:48:51;;;;;;;0.30;0.30;;;19.00;99.90;;;;;;4885651;29;20496;-73
2023/08/04 12:51:19;;;;;;;2.13;0.77;;;19.10;99.90;;;;;;4894067;29;20507;-72
2023/08/04 12:53:46;;;;;;;0.40;0.40;;;19.20;99.90;;;;;;4902710;29;20894;-72
2023/08/04 12:56:14;;;;;;;1.07;0.60;;;19.40;99.90;;;;;;4911022;29;20530;-72
2023/08/04 12:58:41;;;;;;;0.40;0.40;;;19.50;99.90;;;;;;4888961;29;20513;-72
2023/08/04 13:01:07;;;;;;;0.40;0.40;;;19.70;99.90;;;;;;4894286;29;20573;-73
2023/08/04 13:03:34;;;;;;;0.40;0.40;;;19.90;99.90;;;;;;4887849;29;21036;-70
2023/08/04 13:06:01;;;;;;;4.03;0.90;;;20.10;99.90;;;;;;4889584;29;20565;-72
2023/08/04 13:08:27;;;;;;;0.60;0.60;;;20.20;99.90;;;;;;4890025;29;20473;-75
2023/08/04 13:10:54;;;;;;;0.50;0.50;;;20.40;99.90;;;;;;4909299;29;20461;-72
2023/08/04 13:13:22;;;;;;;0.50;0.50;;;20.50;99.90;;;;;;4880042;29;20467;-73
2023/08/04 13:15:49;;;;;;;0.37;0.37;;;20.40;99.90;;;;;;4877854;29;20477;-72
2023/08/04 13:18:15;;;;;;;0.30;0.30;;;20.50;99.90;;;;;;4888571;29;20475;-72
2023/08/04 13:20:42;;;;;;;0.73;0.70;;;20.50;99.90;;;;;;4899986;29;20477;-73
2023/08/04 13:23:09;;;;;;;1.13;0.80;;;20.50;99.90;;;;;;4915243;29;20473;-70
2023/08/04 13:25:36;;;;;;;0.60;0.60;;;20.50;99.90;;;;;;4916420;29;20477;-73
2023/08/04 13:28:03;;;;;;;0.70;0.70;;;20.60;99.90;;;;;;4916569;29;20556;-73
2023/08/04 13:30:32;;;;;;;0.50;0.50;;;20.50;99.90;;;;;;4916912;29;20522;-74
2023/08/04 13:32:59;;;;;;;0.93;0.83;;;20.60;99.90;;;;;;4900414;29;20473;-74
2023/08/04 13:35:25;;;;;;;0.70;0.70;;;20.80;99.90;;;;;;4905236;29;20537;-71
2023/08/04 13:37:52;;;;;;;0.53;0.53;;;21.10;99.90;;;;;;4909461;29;20465;-71
2023/08/04 13:40:19;;;;;;;2.00;0.50;;;21.10;99.90;;;;;;4912061;29;20574;-72
2023/08/04 13:42:46;;;;;;;0.77;0.77;;;21.20;99.90;;;;;;4898042;29;20479;-73
2023/08/04 13:45:12;;;;;;;0.60;0.60;;;21.20;99.90;;;;;;4895739;29;20495;-73
2023/08/04 13:47:41;;;;;;;0.80;0.80;;;21.30;99.90;;;;;;4905388;29;20485;-71
2023/08/04 13:50:08;;;;;;;1.90;0.60;;;21.40;99.90;;;;;;4892086;29;20490;-71
2023/08/04 13:52:34;;;;;;;0.37;0.37;;;21.40;99.90;;;;;;4908137;29;20468;-73
2023/08/04 13:55:01;;;;;;;0.53;0.53;;;21.50;99.90;;;;;;4916567;29;20932;-72
2023/08/04 13:57:28;;;;;;;1.73;0.67;;;21.50;99.90;;;;;;4916389;29;20935;-69
2023/08/04 13:59:55;;;;;;;0.67;0.67;;;21.50;99.90;;;;;;4901487;29;20525;-72
2023/08/04 14:02:22;;;;;;;0.40;0.40;;;21.60;99.90;;;;;;4904855;29;20550;-70
2023/08/04 14:04:50;;;;;;;0.60;0.60;;;21.60;99.90;;;;;;4900590;29;20501;-72
2023/08/04 14:07:17;;;;;;;1.90;0.80;;;21.60;99.90;;;;;;4898099;29;20475;-73
2023/08/04 14:09:44;;;;;;;0.77;0.50;;;21.70;99.90;;;;;;4908330;29;20492;-73
2023/08/04 14:12:11;;;;;;;0.40;0.40;;;21.60;99.90;;;;;;4916101;29;20497;-73
2023/08/04 14:14:37;;;;;;;0.40;0.40;;;21.70;99.90;;;;;;4898102;29;20499;-73
2023/08/04 14:17:05;;;;;;;0.50;0.50;;;21.80;99.90;;;;;;4905299;29;20477;-73
2023/08/04 14:19:32;;;;;;;0.70;0.70;;;21.80;99.90;;;;;;4896790;29;20513;-72
2023/08/04 14:22:00;;;;;;;0.30;0.30;;;21.90;99.90;;;;;;4897373;29;20509;-73
2023/08/04 14:24:27;;;;;;;0.83;0.57;;;21.70;99.90;;;;;;4896912;29;20517;-74
2023/08/04 14:26:53;;;;;;;0.43;0.43;;;21.80;99.90;;;;;;4903324;29;20487;-73
2023/08/04 14:29:20;;;;;;;0.40;0.40;;;21.90;99.90;;;;;;4903747;29;20505;-71
2023/08/04 14:31:47;;;;;;;0.50;0.50;;;22.00;99.90;;;;;;4916435;29;20470;-71
2023/08/04 14:34:14;;;;;;;0.50;0.50;;;22.10;99.90;;;;;;4915527;29;20505;-73
2023/08/04 14:36:40;;;;;;;1.87;0.63;;;22.30;99.90;;;;;;4915333;29;20474;-70
2023/08/04 14:39:08;;;;;;;0.77;0.77;;;22.10;99.90;;;;;;4915406;29;20518;-72
2023/08/04 14:41:35;;;;;;;0.57;0.57;;;21.80;99.90;;;;;;4893833;29;20858;-71
2023/08/04 14:44:02;;;;;;;2.40;0.77;;;21.60;99.90;;;;;;4907977;29;20489;-71
2023/08/04 14:46:29;;;;;;;1.23;0.67;;;21.50;99.90;;;;;;4911478;29;20475;-70
2023/08/04 14:48:55;;;;;;;1.57;0.90;;;21.40;99.90;;;;;;4901409;29;20494;-72
2023/08/04 14:51:22;;;;;;;0.60;0.60;;;21.40;99.90;;;;;;4903469;29;20571;-71
2023/08/04 14:53:50;;;;;;;1.63;0.60;;;21.20;99.90;;;;;;4915000;29;21018;-72
2023/08/04 14:56:18;;;;;;;0.67;0.67;;;21.20;99.90;;;;;;4904501;29;20482;-72
2023/08/04 14:58:44;;;;;;;0.50;0.50;;;21.10;99.90;;;;;;4898872;29;20498;-70
2023/08/04 15:01:11;;;;;;;0.67;0.67;;;21.00;99.90;;;;;;4891021;29;20489;-71
2023/08/04 15:03:39;;;;;;;0.50;0.50;;;21.00;99.90;;;;;;4904544;29;20468;-74
2023/08/04 15:06:11;;;;;;;0.90;0.90;;;21.00;99.90;;;;;;4891920;29;20480;-72
2023/08/04 15:08:38;;;;;;;0.93;0.93;;;21.00;99.90;;;;;;4890296;29;20495;-72
2023/08/04 15:11:05;;;;;;;0.67;0.67;;;21.10;99.90;;;;;;4898306;29;20479;-72
2023/08/04 15:13:33;;;;;;;0.70;0.70;;;21.10;99.90;;;;;;4901368;29;20470;-73
2023/08/04 15:16:01;;;;;;;1.07;0.60;;;21.20;99.90;;;;;;4891043;29;20483;-74
2023/08/04 15:18:27;;;;;;;0.87;0.87;;;21.20;99.90;;;;;;4901912;29;20861;-72
2023/08/04 15:20:54;;;;;;;0.80;0.80;;;21.30;99.90;;;;;;4895080;29;20453;-73
2023/08/04 15:23:21;;;;;;;0.73;0.73;;;21.30;99.90;;;;;;4903261;29;20519;-70
2023/08/04 15:25:48;;;;;;;1.17;1.17;;;21.20;99.90;;;;;;4902859;29;20499;-71
2023/08/04 15:28:14;;;;;;;0.73;0.73;;;21.20;99.90;;;;;;4899821;29;20481;-71
2023/08/04 15:30:42;;;;;;;0.50;0.50;;;21.10;99.90;;;;;;4902539;29;20573;-73
2023/08/04 15:33:09;;;;;;;2.00;1.10;;;21.00;99.90;;;;;;4903198;29;20479;-72
2023/08/04 15:35:36;;;;;;;1.00;1.00;;;21.00;99.90;;;;;;4902796;29;20486;-71
2023/08/04 15:38:03;;;;;;;0.63;0.63;;;21.00;99.90;;;;;;4893808;29;20482;-71
2023/08/04 15:40:30;;;;;;;0.73;0.73;;;20.90;99.90;;;;;;4891175;29;20494;-70
2023/08/04 15:42:56;;;;;;;0.73;0.73;;;20.90;99.90;;;;;;4890849;29;20480;-72
2023/08/04 15:45:25;;;;;;;0.90;0.83;;;21.00;99.90;;;;;;4886556;29;20506;-73
2023/08/04 15:47:53;;;;;;;0.70;0.70;;;21.00;99.90;;;;;;4889521;29;20491;-73
2023/08/04 15:50:19;;;;;;;0.87;0.87;;;21.10;99.90;;;;;;4896336;29;20490;-73
2023/08/04 15:52:46;;;;;;;1.50;0.50;;;21.10;99.90;;;;;;4888790;29;20861;-72
2023/08/04 15:55:13;;;;;;;0.60;0.60;;;21.30;99.90;;;;;;4882992;29;20464;-72
2023/08/04 15:57:39;;;;;;;0.50;0.50;;;21.50;99.90;;;;;;4878545;29;21052;-71
2023/08/04 16:00:08;;;;;;;1.30;0.63;;;21.50;99.90;;;;;;4888002;29;20506;-72
2023/08/04 16:02:35;;;;;;;0.50;0.50;;;21.50;99.90;;;;;;4887358;29;20483;-73
2023/08/04 16:05:03;;;;;;;0.30;0.30;;;21.50;99.90;;;;;;4896003;29;20497;-73
2023/08/04 16:07:30;;;;;;;0.40;0.40;;;21.40;99.90;;;;;;4888271;29;20974;-73
2023/08/04 16:09:57;;;;;;;1.60;0.50;;;21.40;99.90;;;;;;4891874;29;20484;-71
2023/08/04 16:12:23;;;;;;;0.70;0.70;;;21.40;99.90;;;;;;4882796;29;21018;-71
2023/08/04 16:14:51;;;;;;;0.70;0.70;;;21.30;99.90;;;;;;4878395;29;20502;-71
2023/08/04 16:17:18;;;;;;;2.70;0.53;;;21.30;99.90;;;;;;4893246;29;20534;-74
2023/08/04 16:19:47;;;;;;;0.80;0.80;;;21.30;99.90;;;;;;4918949;23;20504;-70
2023/08/04 16:22:15;;;;;;;0.60;0.60;;;21.30;99.90;;;;;;4886756;29;20475;-69
2023/08/04 16:24:42;;;;;;;1.70;0.70;;;21.40;99.90;;;;;;4890282;29;20488;-69
2023/08/04 16:27:09;;;;;;;0.60;0.60;;;21.50;99.90;;;;;;4892691;29;20503;-69
2023/08/04 16:29:36;;;;;;;0.40;0.40;;;21.40;99.90;;;;;;4894145;29;20519;-70
2023/08/04 16:32:02;;;;;;;0.50;0.50;;;21.30;99.90;;;;;;4891569;29;20497;-69
2023/08/04 16:34:29;;;;;;;3.40;0.63;;;21.20;99.90;;;;;;4888436;29;20546;-70
2023/08/04 16:36:56;;;;;;;0.60;0.60;;;21.20;99.90;;;;;;4892949;29;20994;-69
2023/08/04 16:39:25;;;;;;;0.30;0.30;;;21.10;99.90;;;;;;4881143;29;21009;-70
2023/08/04 16:41:52;;;;;;;0.30;0.30;;;21.10;99.90;;;;;;4885703;29;20560;-69
2023/08/04 16:44:18;;;;;;;1.27;0.50;;;21.10;99.90;;;;;;4899726;29;20469;-69
2023/08/04 16:46:45;;;;;;;1.50;0.60;;;21.20;99.90;;;;;;4879752;29;20487;-68
2023/08/04 16:49:12;;;;;;;0.47;0.47;;;21.30;99.90;;;;;;4881436;29;20910;-68